createdAt,value
2017-01-16T00:00:56.438Z,0
2017-01-16T00:01:55.785Z,0
2017-01-16T00:02:56.069Z,0
2017-01-16T00:03:56.720Z,0
2017-01-16T00:04:55.495Z,0
2017-01-16T00:05:56.784Z,0
2017-01-16T00:06:56.264Z,0
2017-01-16T00:07:55.591Z,0
2017-01-16T00:08:56.464Z,0
2017-01-16T00:09:55.798Z,0
2017-01-16T00:10:55.765Z,0
2017-01-16T00:11:55.481Z,0
2017-01-16T00:12:56.107Z,0
2017-01-16T00:13:55.780Z,0
2017-01-16T00:14:55.996Z,0
2017-01-16T00:15:54.827Z,0
2017-01-16T00:16:56.408Z,0
2017-01-16T00:17:55.658Z,0
2017-01-16T00:18:56.269Z,0
2017-01-16T00:19:56.596Z,0
2017-01-16T00:20:55.573Z,0
2017-01-16T00:21:55.542Z,0
2017-01-16T00:22:55.848Z,0
2017-01-16T00:23:55.314Z,0
2017-01-16T00:24:55.073Z,0
2017-01-16T00:25:56.310Z,0
2017-01-16T00:26:55.033Z,0
2017-01-16T00:27:55.942Z,0
2017-01-16T00:28:55.689Z,0
2017-01-16T00:29:55.590Z,0
2017-01-16T00:30:54.240Z,0
2017-01-16T00:31:55.589Z,0
2017-01-16T00:32:55.099Z,0
2017-01-16T00:33:55.158Z,0
2017-01-16T00:34:55.276Z,0
2017-01-16T00:35:55.157Z,0
2017-01-16T00:36:55.899Z,0
2017-01-16T00:37:55.785Z,0
2017-01-16T00:38:55.363Z,0
2017-01-16T00:39:55.127Z,0
2017-01-16T00:40:55.044Z,0
2017-01-16T00:41:55.183Z,0
2017-01-16T00:42:55.730Z,0
2017-01-16T00:43:55.482Z,0
2017-01-16T00:44:55.271Z,0
2017-01-16T00:45:55.343Z,0
2017-01-16T00:46:55.407Z,0
2017-01-16T00:47:54.198Z,0
2017-01-16T00:48:55.689Z,0
2017-01-16T00:49:54.992Z,0
2017-01-16T00:50:55.357Z,0
2017-01-16T00:51:55.078Z,0
2017-01-16T00:52:54.797Z,0
2017-01-16T00:53:55.146Z,0
2017-01-16T00:54:54.254Z,0
2017-01-16T00:55:56.018Z,0
2017-01-16T00:56:55.208Z,0
2017-01-16T00:57:55.880Z,0
2017-01-16T00:58:54.324Z,0
2017-01-16T00:59:55.851Z,0
2017-01-16T01:00:54.482Z,0
2017-01-16T01:01:54.339Z,0
2017-01-16T01:02:55.513Z,0
2017-01-16T01:03:54.071Z,0
2017-01-16T01:04:55.390Z,0
2017-01-16T01:05:52.979Z,0
2017-01-16T01:06:53.731Z,0
2017-01-16T01:07:53.920Z,0
2017-01-16T01:08:54.547Z,0
2017-01-16T01:09:55.259Z,0
2017-01-16T01:10:53.435Z,0
2017-01-16T01:11:54.766Z,0
2017-01-16T01:12:54.065Z,0
2017-01-16T01:13:55.135Z,0
2017-01-16T01:14:54.786Z,0
2017-01-16T01:15:54.651Z,0
2017-01-16T01:16:54.013Z,0
2017-01-16T01:17:54.739Z,0
2017-01-16T01:18:54.334Z,0
2017-01-16T01:19:54.920Z,0
2017-01-16T01:20:54.340Z,0
2017-01-16T01:21:54.650Z,0
2017-01-16T01:22:54.609Z,0
2017-01-16T01:23:53.185Z,0
2017-01-16T01:24:54.410Z,0
2017-01-16T01:25:53.028Z,0
2017-01-16T01:26:54.519Z,0
2017-01-16T01:27:52.747Z,0
2017-01-16T01:28:54.423Z,0
2017-01-16T01:29:54.366Z,0
2017-01-16T01:30:54.515Z,0
2017-01-16T01:31:54.345Z,0
2017-01-16T01:32:54.423Z,0
2017-01-16T01:33:52.883Z,0
2017-01-16T01:34:53.277Z,0
2017-01-16T01:35:53.832Z,0
2017-01-16T01:36:52.832Z,0
2017-01-16T01:37:54.185Z,0
2017-01-16T01:38:53.538Z,0
2017-01-16T01:39:53.018Z,0
2017-01-16T01:40:52.750Z,0
2017-01-16T01:41:53.988Z,0
2017-01-16T01:42:54.757Z,0
2017-01-16T01:43:53.907Z,0
2017-01-16T01:44:53.264Z,0
2017-01-16T01:45:53.008Z,0
2017-01-16T01:46:52.801Z,0
2017-01-16T01:47:52.909Z,0
2017-01-16T01:48:53.684Z,0
2017-01-16T01:49:52.582Z,0
2017-01-16T01:50:53.193Z,0
2017-01-16T01:51:54.133Z,0
2017-01-16T01:52:53.143Z,0
2017-01-16T01:53:53.433Z,0
2017-01-16T01:54:53.462Z,0
2017-01-16T01:55:53.703Z,0
2017-01-16T01:56:52.055Z,0
2017-01-16T01:57:52.652Z,0
2017-01-16T01:58:52.879Z,0
2017-01-16T01:59:53.083Z,0
2017-01-16T02:00:53.311Z,0
2017-01-16T02:01:53.477Z,0
2017-01-16T02:02:53.017Z,0
2017-01-16T02:03:53.276Z,0
2017-01-16T02:04:52.400Z,0
2017-01-16T02:05:53.098Z,0
2017-01-16T02:06:53.085Z,0
2017-01-16T02:07:53.416Z,0
2017-01-16T02:08:52.349Z,0
2017-01-16T02:09:52.703Z,0
2017-01-16T02:10:52.852Z,0
2017-01-16T02:11:53.620Z,0
2017-01-16T02:12:53.250Z,0
2017-01-16T02:13:52.359Z,0
2017-01-16T02:14:52.591Z,0
2017-01-16T02:15:52.866Z,0
2017-01-16T02:16:53.140Z,0
2017-01-16T02:17:52.506Z,0
2017-01-16T02:18:52.661Z,0
2017-01-16T02:19:52.087Z,0
2017-01-16T02:20:53.187Z,0
2017-01-16T02:21:52.376Z,0
2017-01-16T02:22:52.283Z,0
2017-01-16T02:23:52.636Z,0
2017-01-16T02:24:51.526Z,0
2017-01-16T02:25:52.274Z,0
2017-01-16T02:26:53.131Z,0
2017-01-16T02:27:53.205Z,0
2017-01-16T02:28:52.442Z,0
2017-01-16T02:29:51.400Z,0
2017-01-16T02:30:51.078Z,0
2017-01-16T02:31:52.378Z,0
2017-01-16T02:32:51.751Z,0
2017-01-16T02:33:52.061Z,0
2017-01-16T02:34:51.400Z,0
2017-01-16T02:35:52.029Z,0
2017-01-16T02:36:52.506Z,0
2017-01-16T02:37:51.657Z,0
2017-01-16T02:38:53.216Z,0
2017-01-16T02:39:51.728Z,0
2017-01-16T02:40:52.537Z,0
2017-01-16T02:41:51.185Z,0
2017-01-16T02:42:52.489Z,0
2017-01-16T02:43:51.643Z,0
2017-01-16T02:44:51.370Z,0
2017-01-16T02:45:52.053Z,0
2017-01-16T02:46:52.267Z,0
2017-01-16T02:47:52.048Z,0
2017-01-16T02:48:52.169Z,0
2017-01-16T02:49:51.551Z,0
2017-01-16T02:50:51.456Z,0
2017-01-16T02:51:53.817Z,0
2017-01-16T02:52:53.365Z,0
2017-01-16T02:53:52.173Z,0
2017-01-16T02:54:51.397Z,0
2017-01-16T02:55:51.498Z,0
2017-01-16T02:56:50.437Z,0
2017-01-16T02:57:52.047Z,0
2017-01-16T02:58:51.905Z,0
2017-01-16T02:59:51.965Z,0
2017-01-16T03:00:50.594Z,0
2017-01-16T03:01:51.615Z,0
2017-01-16T03:02:50.976Z,0
2017-01-16T03:03:51.475Z,0
2017-01-16T03:04:50.582Z,0
2017-01-16T03:05:51.192Z,0
2017-01-16T03:06:51.160Z,0
2017-01-16T03:07:51.360Z,0
2017-01-16T03:08:51.121Z,0
2017-01-16T03:09:52.080Z,0
2017-01-16T03:10:51.650Z,0
2017-01-16T03:11:51.699Z,0
2017-01-16T03:12:50.665Z,0
2017-01-16T03:13:50.859Z,0
2017-01-16T03:14:51.921Z,0
2017-01-16T03:15:50.956Z,0
2017-01-16T03:16:50.896Z,0
2017-01-16T03:17:51.546Z,0
2017-01-16T03:18:50.523Z,0
2017-01-16T03:19:51.770Z,0
2017-01-16T03:20:49.763Z,0
2017-01-16T03:21:50.701Z,0
2017-01-16T03:22:51.027Z,0
2017-01-16T03:23:49.863Z,0
2017-01-16T03:24:50.747Z,0
2017-01-16T03:25:51.211Z,0
2017-01-16T03:26:50.800Z,0
2017-01-16T03:27:50.780Z,0
2017-01-16T03:28:51.127Z,0
2017-01-16T03:29:50.860Z,0
2017-01-16T03:30:51.277Z,0
2017-01-16T03:31:51.071Z,0
2017-01-16T03:32:50.339Z,0
2017-01-16T03:33:50.757Z,0
2017-01-16T03:34:51.767Z,0
2017-01-16T03:35:49.576Z,0
2017-01-16T03:36:51.790Z,0
2017-01-16T03:37:51.373Z,0
2017-01-16T03:38:50.034Z,0
2017-01-16T03:39:49.864Z,0
2017-01-16T03:40:50.333Z,0
2017-01-16T03:41:50.261Z,0
2017-01-16T03:42:50.539Z,0
2017-01-16T03:43:50.191Z,0
2017-01-16T03:44:49.421Z,0
2017-01-16T03:45:51.154Z,0
2017-01-16T03:46:50.060Z,0
2017-01-16T03:47:50.612Z,0
2017-01-16T03:48:50.279Z,0
2017-01-16T03:49:51.228Z,0
2017-01-16T03:50:50.686Z,0
2017-01-16T03:51:49.974Z,0
2017-01-16T03:52:50.491Z,0
2017-01-16T03:53:48.867Z,0
2017-01-16T03:54:50.566Z,0
2017-01-16T03:55:50.486Z,0
2017-01-16T03:56:49.775Z,0
2017-01-16T03:57:49.514Z,0
2017-01-16T03:58:49.734Z,0
2017-01-16T03:59:51.071Z,0
2017-01-16T04:00:48.953Z,0
2017-01-16T04:01:49.666Z,0
2017-01-16T04:02:49.351Z,0
2017-01-16T04:03:49.331Z,0
2017-01-16T04:04:49.657Z,0
2017-01-16T04:05:49.529Z,0
2017-01-16T04:06:49.987Z,0
2017-01-16T04:07:49.876Z,0
2017-01-16T04:08:50.539Z,0
2017-01-16T04:09:49.838Z,0
2017-01-16T04:10:50.779Z,0
2017-01-16T04:11:49.371Z,0
2017-01-16T04:12:50.006Z,0
2017-01-16T04:13:49.807Z,0
2017-01-16T04:14:49.767Z,0
2017-01-16T04:15:49.176Z,0
2017-01-16T04:16:48.964Z,0
2017-01-16T04:17:49.325Z,0
2017-01-16T04:18:48.964Z,0
2017-01-16T04:19:50.582Z,0
2017-01-16T04:20:49.763Z,0
2017-01-16T04:21:50.161Z,0
2017-01-16T04:22:48.836Z,0
2017-01-16T04:23:49.131Z,0
2017-01-16T04:24:49.971Z,0
2017-01-16T04:25:49.070Z,0
2017-01-16T04:26:50.000Z,0
2017-01-16T04:27:47.548Z,0
2017-01-16T04:28:48.353Z,0
2017-01-16T04:29:47.902Z,0
2017-01-16T04:30:47.877Z,0
2017-01-16T04:31:48.970Z,0
2017-01-16T04:32:48.785Z,0
2017-01-16T04:33:49.505Z,0
2017-01-16T04:34:48.195Z,0
2017-01-16T04:35:48.807Z,0
2017-01-16T04:36:48.363Z,0
2017-01-16T04:37:48.363Z,0
2017-01-16T04:38:48.049Z,0
2017-01-16T04:39:47.968Z,0
2017-01-16T04:40:47.907Z,0
2017-01-16T04:41:48.560Z,0
2017-01-16T04:42:47.931Z,0
2017-01-16T04:43:47.525Z,0
2017-01-16T04:44:47.909Z,0
2017-01-16T04:45:47.586Z,0
2017-01-16T04:46:48.360Z,0
2017-01-16T04:47:48.958Z,0
2017-01-16T04:48:48.397Z,0
2017-01-16T04:49:47.571Z,0
2017-01-16T04:50:48.157Z,0
2017-01-16T04:51:48.636Z,0
2017-01-16T04:52:48.282Z,0
2017-01-16T04:53:48.328Z,0
2017-01-16T04:54:48.154Z,0
2017-01-16T04:55:48.200Z,0
2017-01-16T04:56:48.173Z,0
2017-01-16T04:57:47.843Z,0
2017-01-16T04:58:48.193Z,0
2017-01-16T04:59:49.515Z,0
2017-01-16T05:00:47.725Z,0
2017-01-16T05:01:48.110Z,0
2017-01-16T05:02:47.920Z,0
2017-01-16T05:03:48.034Z,0
2017-01-16T05:04:48.368Z,0
2017-01-16T05:05:48.015Z,0
2017-01-16T05:06:48.965Z,0
2017-01-16T05:07:48.279Z,0
2017-01-16T05:08:48.276Z,0
2017-01-16T05:09:47.474Z,0
2017-01-16T05:10:47.866Z,0
2017-01-16T05:11:48.484Z,0
2017-01-16T05:12:48.149Z,0
2017-01-16T05:13:47.976Z,0
2017-01-16T05:14:48.205Z,0
2017-01-16T05:15:47.629Z,0
2017-01-16T05:16:48.321Z,0
2017-01-16T05:17:48.663Z,0
2017-01-16T05:18:47.421Z,0
2017-01-16T05:19:47.987Z,0
2017-01-16T05:20:47.916Z,0
2017-01-16T05:21:46.759Z,0
2017-01-16T05:22:48.199Z,0
2017-01-16T05:23:48.209Z,0
2017-01-16T05:24:46.878Z,0
2017-01-16T05:25:47.794Z,0
2017-01-16T05:26:47.387Z,0
2017-01-16T05:27:46.672Z,0
2017-01-16T05:28:47.566Z,0
2017-01-16T05:29:46.653Z,0
2017-01-16T05:30:46.913Z,0
2017-01-16T05:31:47.217Z,0
2017-01-16T05:32:47.573Z,0
2017-01-16T05:33:46.861Z,0
2017-01-16T05:34:47.712Z,0
2017-01-16T05:35:47.856Z,0
2017-01-16T05:36:46.699Z,0
2017-01-16T05:37:47.132Z,0
2017-01-16T05:38:46.067Z,0
2017-01-16T05:39:46.881Z,0
2017-01-16T05:40:47.599Z,0
2017-01-16T05:41:47.100Z,0
2017-01-16T05:42:47.335Z,0
2017-01-16T05:43:47.228Z,0
2017-01-16T05:44:46.577Z,0
2017-01-16T05:45:47.908Z,0
2017-01-16T05:46:46.808Z,0
2017-01-16T05:47:47.223Z,0
2017-01-16T05:48:47.393Z,0
2017-01-16T05:49:46.921Z,0
2017-01-16T05:50:47.135Z,0
2017-01-16T05:51:46.824Z,0
2017-01-16T05:52:46.951Z,0
2017-01-16T05:53:47.402Z,0
2017-01-16T05:54:46.072Z,0
2017-01-16T05:55:47.865Z,0
2017-01-16T05:56:46.008Z,0
2017-01-16T05:57:46.990Z,0
2017-01-16T05:58:46.520Z,0
2017-01-16T05:59:46.870Z,0
2017-01-16T06:00:47.428Z,0
2017-01-16T06:01:45.531Z,0
2017-01-16T06:02:46.436Z,0
2017-01-16T06:03:47.415Z,0
2017-01-16T06:04:45.364Z,0
2017-01-16T06:05:47.085Z,0
2017-01-16T06:06:46.393Z,0
2017-01-16T06:07:46.565Z,0
2017-01-16T06:08:46.654Z,0
2017-01-16T06:09:46.986Z,0
2017-01-16T06:10:46.923Z,0
2017-01-16T06:11:47.195Z,0
2017-01-16T06:12:46.555Z,0
2017-01-16T06:13:46.877Z,0
2017-01-16T06:14:46.199Z,0
2017-01-16T06:15:46.374Z,0
2017-01-16T06:16:45.357Z,0
2017-01-16T06:17:45.776Z,0
2017-01-16T06:18:46.799Z,0
2017-01-16T06:19:46.626Z,0
2017-01-16T06:20:45.029Z,0
2017-01-16T06:21:45.685Z,0
2017-01-16T06:22:45.087Z,0
2017-01-16T06:23:45.521Z,0
2017-01-16T06:24:45.448Z,0
2017-01-16T06:25:45.406Z,0
2017-01-16T06:26:45.119Z,0
2017-01-16T06:27:46.450Z,0
2017-01-16T06:28:46.042Z,0
2017-01-16T06:29:45.116Z,0
2017-01-16T06:30:45.797Z,0
2017-01-16T06:31:46.123Z,0
2017-01-16T06:32:44.212Z,0
2017-01-16T06:33:44.838Z,0
2017-01-16T06:34:45.582Z,0
2017-01-16T06:35:45.586Z,0
2017-01-16T06:36:46.250Z,0
2017-01-16T06:37:45.349Z,0
2017-01-16T06:38:45.557Z,0
2017-01-16T06:39:46.345Z,0
2017-01-16T06:40:45.981Z,0
2017-01-16T06:41:45.127Z,0
2017-01-16T06:42:45.416Z,0
2017-01-16T06:43:45.306Z,0
2017-01-16T06:44:45.058Z,0
2017-01-16T06:45:45.135Z,0
2017-01-16T06:46:45.534Z,0
2017-01-16T06:47:45.927Z,0
2017-01-16T06:48:46.257Z,0
2017-01-16T06:49:46.056Z,0
2017-01-16T06:50:46.082Z,0
2017-01-16T06:51:45.187Z,0
2017-01-16T06:52:45.471Z,0
2017-01-16T06:53:44.812Z,0
2017-01-16T06:54:44.355Z,0
2017-01-16T06:55:45.407Z,0
2017-01-16T06:56:44.910Z,0
2017-01-16T06:57:46.354Z,0
2017-01-16T06:58:44.586Z,0
2017-01-16T06:59:46.405Z,0
2017-01-16T07:00:45.408Z,0
2017-01-16T07:01:44.876Z,0
2017-01-16T07:02:45.795Z,0
2017-01-16T07:03:45.540Z,0
2017-01-16T07:04:45.491Z,0
2017-01-16T07:05:45.138Z,0
2017-01-16T07:06:45.073Z,0
2017-01-16T07:07:46.051Z,0
2017-01-16T07:08:45.581Z,0
2017-01-16T07:09:44.056Z,0
2017-01-16T07:10:45.261Z,0
2017-01-16T07:11:44.909Z,0
2017-01-16T07:12:44.628Z,0
2017-01-16T07:13:44.596Z,0
2017-01-16T07:14:45.005Z,0
2017-01-16T07:15:45.221Z,0
2017-01-16T07:16:43.555Z,0
2017-01-16T07:17:45.295Z,0
2017-01-16T07:18:45.495Z,0
2017-01-16T07:19:45.381Z,0
2017-01-16T07:20:43.684Z,0
2017-01-16T07:21:44.406Z,0
2017-01-16T07:22:45.299Z,0
2017-01-16T07:23:44.827Z,0
2017-01-16T07:24:43.720Z,0
2017-01-16T07:25:44.339Z,0
2017-01-16T07:26:44.077Z,0
2017-01-16T07:27:43.721Z,0
2017-01-16T07:28:44.473Z,0
2017-01-16T07:29:43.817Z,0
2017-01-16T07:30:44.785Z,0
2017-01-16T07:31:43.977Z,0
2017-01-16T07:32:43.396Z,0
2017-01-16T07:33:44.742Z,0
2017-01-16T07:34:43.375Z,0
2017-01-16T07:35:44.302Z,0
2017-01-16T07:36:44.293Z,0
2017-01-16T07:37:42.973Z,0
2017-01-16T07:38:44.897Z,0
2017-01-16T07:39:43.151Z,0
2017-01-16T07:40:44.181Z,0
2017-01-16T07:41:43.013Z,0
2017-01-16T07:42:44.080Z,0
2017-01-16T07:43:44.879Z,0
2017-01-16T07:44:43.679Z,0
2017-01-16T07:45:42.746Z,0
2017-01-16T07:46:43.388Z,0
2017-01-16T07:47:43.616Z,0
2017-01-16T07:48:44.138Z,0
2017-01-16T07:49:44.312Z,0
2017-01-16T07:50:43.295Z,0
2017-01-16T07:51:43.095Z,5
2017-01-16T07:52:43.864Z,5
2017-01-16T07:53:44.105Z,5
2017-01-16T07:54:42.753Z,5
2017-01-16T07:55:44.137Z,5
2017-01-16T07:56:43.439Z,5
2017-01-16T07:57:43.087Z,5
2017-01-16T07:58:43.651Z,5
2017-01-16T07:59:42.630Z,5
2017-01-16T08:00:43.820Z,5
2017-01-16T08:01:42.757Z,10
2017-01-16T08:02:42.689Z,10
2017-01-16T08:03:43.280Z,10
2017-01-16T08:04:43.238Z,10
2017-01-16T08:05:43.165Z,10
2017-01-16T08:06:43.435Z,10
2017-01-16T08:07:43.646Z,10
2017-01-16T08:08:43.068Z,15
2017-01-16T08:09:42.948Z,15
2017-01-16T08:10:42.134Z,15
2017-01-16T08:11:43.378Z,20
2017-01-16T08:12:42.770Z,20
2017-01-16T08:13:42.832Z,20
2017-01-16T08:14:43.656Z,20
2017-01-16T08:15:43.062Z,20
2017-01-16T08:16:42.671Z,20
2017-01-16T08:17:43.539Z,20
2017-01-16T08:18:42.758Z,20
2017-01-16T08:19:43.057Z,20
2017-01-16T08:20:42.566Z,25
2017-01-16T08:21:43.145Z,25
2017-01-16T08:22:42.436Z,30
2017-01-16T08:23:42.396Z,30
2017-01-16T08:24:42.416Z,35
2017-01-16T08:25:42.364Z,35
2017-01-16T08:26:41.913Z,35
2017-01-16T08:27:42.835Z,35
2017-01-16T08:28:42.192Z,40
2017-01-16T08:29:42.861Z,40
2017-01-16T08:30:42.442Z,40
2017-01-16T08:31:42.411Z,45
2017-01-16T08:32:43.126Z,45
2017-01-16T08:33:42.799Z,45
2017-01-16T08:34:41.778Z,50
2017-01-16T08:35:42.379Z,55
2017-01-16T08:36:42.559Z,60
2017-01-16T08:37:43.497Z,60
2017-01-16T08:38:42.185Z,65
2017-01-16T08:39:42.145Z,70
2017-01-16T08:40:42.547Z,80
2017-01-16T08:41:42.597Z,160
2017-01-16T08:42:41.865Z,235
2017-01-16T08:43:42.705Z,220
2017-01-16T08:44:42.175Z,120
2017-01-16T08:45:42.873Z,170
2017-01-16T08:46:41.743Z,195
2017-01-16T08:47:42.004Z,235
2017-01-16T08:48:42.105Z,110
2017-01-16T08:49:41.758Z,90
2017-01-16T08:50:41.603Z,80
2017-01-16T08:51:42.799Z,75
2017-01-16T08:52:41.569Z,65
2017-01-16T08:53:41.154Z,45
2017-01-16T08:54:42.247Z,45
2017-01-16T08:55:41.919Z,45
2017-01-16T08:56:42.332Z,40
2017-01-16T08:57:42.197Z,40
2017-01-16T08:58:40.775Z,40
2017-01-16T08:59:41.705Z,40
2017-01-16T09:00:42.119Z,40
2017-01-16T09:01:42.195Z,40
2017-01-16T09:02:43.006Z,45
2017-01-16T09:03:41.754Z,45
2017-01-16T09:04:41.928Z,45
2017-01-16T09:05:40.813Z,45
2017-01-16T09:06:42.294Z,45
2017-01-16T09:07:41.593Z,65
2017-01-16T09:08:42.268Z,50
2017-01-16T09:09:40.811Z,45
2017-01-16T09:10:40.853Z,40
2017-01-16T09:11:41.552Z,40
2017-01-16T09:12:41.478Z,40
2017-01-16T09:13:42.599Z,45
2017-01-16T09:14:41.658Z,55
2017-01-16T09:15:41.678Z,75
2017-01-16T09:16:40.486Z,70
2017-01-16T09:17:41.068Z,80
2017-01-16T09:18:40.977Z,110
2017-01-16T09:19:41.359Z,110
2017-01-16T09:20:42.576Z,105
2017-01-16T09:21:41.016Z,105
2017-01-16T09:22:41.825Z,105
2017-01-16T09:23:40.369Z,110
2017-01-16T09:24:42.367Z,120
2017-01-16T09:25:41.783Z,135
2017-01-16T09:26:41.830Z,160
2017-01-16T09:27:41.079Z,515
2017-01-16T09:28:41.793Z,240
2017-01-16T09:29:40.951Z,210
2017-01-16T09:30:41.040Z,210
2017-01-16T09:31:41.672Z,220
2017-01-16T09:32:39.995Z,385
2017-01-16T09:33:40.528Z,565
2017-01-16T09:34:40.815Z,505
2017-01-16T09:35:41.500Z,420
2017-01-16T09:36:41.458Z,520
2017-01-16T09:37:40.191Z,610
2017-01-16T09:38:40.594Z,545
2017-01-16T09:39:41.206Z,530
2017-01-16T09:40:41.298Z,530
2017-01-16T09:41:40.755Z,550
2017-01-16T09:42:41.228Z,425
2017-01-16T09:43:41.145Z,540
2017-01-16T09:44:40.605Z,485
2017-01-16T09:45:39.941Z,255
2017-01-16T09:46:40.350Z,465
2017-01-16T09:47:40.641Z,230
2017-01-16T09:48:40.502Z,270
2017-01-16T09:49:39.933Z,205
2017-01-16T09:50:41.253Z,320
2017-01-16T09:51:39.792Z,195
2017-01-16T09:52:40.742Z,480
2017-01-16T09:53:40.951Z,485
2017-01-16T09:54:41.072Z,550
2017-01-16T09:55:40.441Z,535
2017-01-16T09:56:40.352Z,480
2017-01-16T09:57:40.941Z,470
2017-01-16T09:58:41.066Z,325
2017-01-16T09:59:40.487Z,235
2017-01-16T10:00:40.197Z,570
2017-01-16T10:01:41.616Z,205
2017-01-16T10:02:39.458Z,190
2017-01-16T10:03:38.886Z,280
2017-01-16T10:04:40.297Z,530
2017-01-16T10:05:40.916Z,345
2017-01-16T10:06:40.886Z,140
2017-01-16T10:07:40.270Z,140
2017-01-16T10:08:40.863Z,130
2017-01-16T10:09:39.843Z,115
2017-01-16T10:10:39.686Z,115
2017-01-16T10:11:39.302Z,120
2017-01-16T10:12:40.751Z,140
2017-01-16T10:13:39.791Z,145
2017-01-16T10:14:40.511Z,140
2017-01-16T10:15:40.239Z,160
2017-01-16T10:16:39.939Z,175
2017-01-16T10:17:39.981Z,165
2017-01-16T10:18:40.344Z,140
2017-01-16T10:19:40.569Z,125
2017-01-16T10:20:38.548Z,120
2017-01-16T10:21:39.348Z,115
2017-01-16T10:22:39.928Z,110
2017-01-16T10:23:40.203Z,110
2017-01-16T10:24:39.526Z,120
2017-01-16T10:25:40.188Z,140
2017-01-16T10:26:39.046Z,165
2017-01-16T10:27:39.491Z,180
2017-01-16T10:28:39.889Z,175
2017-01-16T10:29:41.044Z,190
2017-01-16T10:30:40.363Z,215
2017-01-16T10:31:39.539Z,210
2017-01-16T10:32:40.820Z,315
2017-01-16T10:33:40.963Z,195
2017-01-16T10:34:39.240Z,245
2017-01-16T10:35:40.438Z,180
2017-01-16T10:36:40.213Z,185
2017-01-16T10:37:39.229Z,395
2017-01-16T10:38:39.220Z,180
2017-01-16T10:39:39.607Z,160
2017-01-16T10:40:40.067Z,150
2017-01-16T10:41:39.788Z,135
2017-01-16T10:42:38.717Z,130
2017-01-16T10:43:39.418Z,130
2017-01-16T10:44:39.766Z,120
2017-01-16T10:45:39.577Z,110
2017-01-16T10:46:39.685Z,110
2017-01-16T10:47:38.505Z,115
2017-01-16T10:48:40.145Z,105
2017-01-16T10:49:38.474Z,100
2017-01-16T10:50:38.109Z,100
2017-01-16T10:51:39.392Z,100
2017-01-16T10:52:38.546Z,95
2017-01-16T10:53:39.522Z,95
2017-01-16T10:54:38.772Z,100
2017-01-16T10:55:39.885Z,105
2017-01-16T10:56:38.137Z,110
2017-01-16T10:57:38.321Z,110
2017-01-16T10:58:40.331Z,125
2017-01-16T10:59:40.010Z,130
2017-01-16T11:00:39.399Z,145
2017-01-16T11:01:38.988Z,160
2017-01-16T11:02:37.961Z,175
2017-01-16T11:03:38.832Z,195
2017-01-16T11:04:38.541Z,345
2017-01-16T11:05:39.375Z,530
2017-01-16T11:06:39.276Z,565
2017-01-16T11:07:37.523Z,365
2017-01-16T11:08:39.795Z,270
2017-01-16T11:09:38.495Z,195
2017-01-16T11:10:37.748Z,205
2017-01-16T11:11:38.848Z,225
2017-01-16T11:12:39.123Z,415
2017-01-16T11:13:39.715Z,465
2017-01-16T11:14:38.658Z,230
2017-01-16T11:15:37.997Z,190
2017-01-16T11:16:38.986Z,190
2017-01-16T11:17:38.292Z,170
2017-01-16T11:18:39.919Z,170
2017-01-16T11:19:38.083Z,180
2017-01-16T11:20:38.582Z,170
2017-01-16T11:21:38.456Z,160
2017-01-16T11:22:38.403Z,155
2017-01-16T11:23:38.517Z,140
2017-01-16T11:24:38.046Z,135
2017-01-16T11:25:38.128Z,130
2017-01-16T11:26:39.363Z,130
2017-01-16T11:27:38.374Z,130
2017-01-16T11:28:38.360Z,130
2017-01-16T11:29:38.392Z,135
2017-01-16T11:30:37.988Z,165
2017-01-16T11:31:38.218Z,235
2017-01-16T11:32:38.870Z,155
2017-01-16T11:33:38.443Z,140
2017-01-16T11:34:38.396Z,135
2017-01-16T11:35:37.356Z,130
2017-01-16T11:36:39.319Z,125
2017-01-16T11:37:37.871Z,135
2017-01-16T11:38:38.798Z,145
2017-01-16T11:39:38.095Z,155
2017-01-16T11:40:38.307Z,175
2017-01-16T11:41:38.655Z,275
2017-01-16T11:42:37.973Z,195
2017-01-16T11:43:38.034Z,300
2017-01-16T11:44:37.632Z,220
2017-01-16T11:45:37.543Z,340
2017-01-16T11:46:38.091Z,720
2017-01-16T11:47:37.960Z,525
2017-01-16T11:48:37.193Z,780
2017-01-16T11:49:39.177Z,790
2017-01-16T11:50:38.079Z,755
2017-01-16T11:51:38.726Z,490
2017-01-16T11:52:38.520Z,335
2017-01-16T11:53:38.375Z,220
2017-01-16T11:54:36.545Z,310
2017-01-16T11:55:38.606Z,715
2017-01-16T11:56:39.225Z,860
2017-01-16T11:57:37.094Z,865
2017-01-16T11:58:38.225Z,635
2017-01-16T11:59:37.993Z,205
2017-01-16T12:00:38.323Z,845
2017-01-16T12:01:38.372Z,645
2017-01-16T12:02:37.780Z,1020
2017-01-16T12:03:37.251Z,1060
2017-01-16T12:04:37.250Z,1040
2017-01-16T12:05:38.127Z,1040
2017-01-16T12:06:37.850Z,1040
2017-01-16T12:07:37.196Z,1010
2017-01-16T12:08:37.174Z,970
2017-01-16T12:09:36.807Z,920
2017-01-16T12:10:37.286Z,855
2017-01-16T12:11:37.715Z,340
2017-01-16T12:12:37.658Z,920
2017-01-16T12:13:37.714Z,915
2017-01-16T12:14:37.154Z,695
2017-01-16T12:15:37.740Z,1010
2017-01-16T12:16:38.041Z,985
2017-01-16T12:17:38.324Z,1005
2017-01-16T12:18:37.235Z,1000
2017-01-16T12:19:37.500Z,990
2017-01-16T12:20:36.525Z,940
2017-01-16T12:21:37.889Z,920
2017-01-16T12:22:35.936Z,950
2017-01-16T12:23:35.885Z,940
2017-01-16T12:24:37.088Z,960
2017-01-16T12:25:37.712Z,350
2017-01-16T12:26:37.548Z,395
2017-01-16T12:27:36.133Z,895
2017-01-16T12:28:36.406Z,915
2017-01-16T12:29:37.407Z,920
2017-01-16T12:30:36.853Z,935
2017-01-16T12:31:36.151Z,910
2017-01-16T12:32:36.262Z,910
2017-01-16T12:33:36.983Z,935
2017-01-16T12:34:36.837Z,930
2017-01-16T12:35:37.601Z,920
2017-01-16T12:36:36.939Z,890
2017-01-16T12:37:37.277Z,840
2017-01-16T12:38:37.548Z,820
2017-01-16T12:39:36.906Z,840
2017-01-16T12:40:36.647Z,855
2017-01-16T12:41:37.185Z,825
2017-01-16T12:42:36.910Z,785
2017-01-16T12:43:36.512Z,760
2017-01-16T12:44:36.480Z,780
2017-01-16T12:45:37.436Z,785
2017-01-16T12:46:38.071Z,790
2017-01-16T12:47:36.639Z,745
2017-01-16T12:48:36.455Z,730
2017-01-16T12:49:35.989Z,695
2017-01-16T12:50:36.981Z,675
2017-01-16T12:51:37.337Z,575
2017-01-16T12:52:37.988Z,475
2017-01-16T12:53:36.990Z,425
2017-01-16T12:54:37.476Z,395
2017-01-16T12:55:36.242Z,340
2017-01-16T12:56:36.084Z,325
2017-01-16T12:57:37.532Z,320
2017-01-16T12:58:36.496Z,290
2017-01-16T12:59:36.623Z,255
2017-01-16T13:00:37.150Z,235
2017-01-16T13:01:36.642Z,245
2017-01-16T13:02:36.758Z,205
2017-01-16T13:03:37.352Z,205
2017-01-16T13:04:36.204Z,200
2017-01-16T13:05:35.649Z,220
2017-01-16T13:06:36.379Z,265
2017-01-16T13:07:35.779Z,275
2017-01-16T13:08:36.245Z,295
2017-01-16T13:09:35.536Z,350
2017-01-16T13:10:35.947Z,355
2017-01-16T13:11:37.349Z,335
2017-01-16T13:12:37.255Z,330
2017-01-16T13:13:36.343Z,345
2017-01-16T13:14:36.205Z,355
2017-01-16T13:15:36.432Z,360
2017-01-16T13:16:35.781Z,365
2017-01-16T13:17:36.055Z,360
2017-01-16T13:18:35.123Z,380
2017-01-16T13:19:35.463Z,390
2017-01-16T13:20:36.618Z,380
2017-01-16T13:21:35.840Z,385
2017-01-16T13:22:35.739Z,380
2017-01-16T13:23:36.339Z,395
2017-01-16T13:24:36.336Z,410
2017-01-16T13:25:36.631Z,400
2017-01-16T13:26:36.881Z,395
2017-01-16T13:27:36.451Z,395
2017-01-16T13:28:37.210Z,390
2017-01-16T13:29:35.583Z,380
2017-01-16T13:30:35.800Z,375
2017-01-16T13:31:35.816Z,370
2017-01-16T13:32:36.248Z,360
2017-01-16T13:33:36.172Z,355
2017-01-16T13:34:36.448Z,350
2017-01-16T13:35:35.373Z,335
2017-01-16T13:36:34.689Z,330
2017-01-16T13:37:35.664Z,310
2017-01-16T13:38:36.546Z,255
2017-01-16T13:39:35.930Z,145
2017-01-16T13:40:35.914Z,165
2017-01-16T13:41:35.236Z,110
2017-01-16T13:42:35.846Z,105
2017-01-16T13:43:34.783Z,105
2017-01-16T13:44:36.189Z,100
2017-01-16T13:45:36.332Z,95
2017-01-16T13:46:34.908Z,90
2017-01-16T13:47:35.220Z,90
2017-01-16T13:48:35.217Z,80
2017-01-16T13:49:35.562Z,85
2017-01-16T13:50:35.396Z,75
2017-01-16T13:51:35.769Z,80
2017-01-16T13:52:34.789Z,75
2017-01-16T13:53:35.010Z,70
2017-01-16T13:54:35.298Z,65
2017-01-16T13:55:35.747Z,65
2017-01-16T13:56:34.967Z,65
2017-01-16T13:57:35.887Z,65
2017-01-16T13:58:35.656Z,70
2017-01-16T13:59:35.797Z,70
2017-01-16T14:00:36.286Z,85
2017-01-16T14:01:34.595Z,135
2017-01-16T14:02:36.563Z,150
2017-01-16T14:03:35.182Z,135
2017-01-16T14:04:35.211Z,125
2017-01-16T14:05:34.605Z,110
2017-01-16T14:06:36.101Z,125
2017-01-16T14:07:34.343Z,130
2017-01-16T14:08:34.982Z,125
2017-01-16T14:09:35.072Z,105
2017-01-16T14:10:35.343Z,80
2017-01-16T14:11:35.022Z,75
2017-01-16T14:12:35.312Z,80
2017-01-16T14:13:35.631Z,70
2017-01-16T14:14:35.150Z,65
2017-01-16T14:15:35.441Z,60
2017-01-16T14:16:36.048Z,60
2017-01-16T14:17:33.310Z,60
2017-01-16T14:18:35.189Z,60
2017-01-16T14:19:35.207Z,60
2017-01-16T14:20:34.799Z,55
2017-01-16T14:21:35.485Z,55
2017-01-16T14:22:35.317Z,55